Check out our new PWSWeather beta!
PWSweather.com
Personal Weather Stations
Station Observations
948974
Valtournenche, AostaIT 11028

ValtournencheAostaIT 11028

Lat: 45.877222, Lon: 7.625556

Elevation: 5085.3018

Station Type: PCE-FWS 20

http://www.cdso.it

High Low Average
Temperature 73.6°F23.1°C 49.6°F9.8°C 57.4°F14.1°C
Dew Point 43.9°F6.6°C 29.2°F-1.6°C 37.2°F2.9°C
Winds 11.0 mph 17.7 kmh 1.0 mph 1.6 kmh 4.0 mph SSW6.4 kmh SSW
Wind Gusts 15.0 mph24.1 kmh 3.0 mph4.8 kmh 7.0 mph11.3 kmh
Humidity 80% 20% 50%
Pressure 30.01 in1016.3 mb 29.69 in1005.4 mb -
Precipitation 0.00 in0.0 mm - -
Hour Temp Dew Point Humidity Winds Wind Gusts Pressure Precip Precip Rate Daily Precip Total
12:13 AM 49.8°F9.9°C 43.9°F6.6°C 80% 2.0 mph NE3.2 kmh NE 3.0 mph4.8 kmh 29.96 in1014.6 mb 0.00 in0.0 mm 0.00 in0.0 mm 0.00 in0.0 mm
12:34 AM 50.0°F10.0°C 42.7°F5.9°C 76% 2.0 mph NE3.2 kmh NE 3.0 mph4.8 kmh 29.96 in1014.6 mb 0.00 in0.0 mm 0.00 in0.0 mm 0.00 in0.0 mm
12:55 AM 50.7°F10.4°C 43.1°F6.2°C 75% 4.0 mph NE6.4 kmh NE 7.0 mph11.3 kmh 29.95 in1014.2 mb 0.00 in0.0 mm 0.00 in0.0 mm 0.00 in0.0 mm
01:16 AM 50.0°F10.0°C 42.7°F5.9°C 76% 3.0 mph 4.8 kmh 4.0 mph6.4 kmh 29.96 in1014.6 mb 0.00 in0.0 mm 0.00 in0.0 mm 0.00 in0.0 mm
01:37 AM 51.3°F10.7°C 41.8°F5.4°C 70% 4.0 mph NE6.4 kmh NE 7.0 mph11.3 kmh 29.94 in1013.9 mb 0.00 in0.0 mm 0.00 in0.0 mm 0.00 in0.0 mm
01:58 AM 51.1°F10.6°C 40.9°F4.9°C 68% 4.0 mph NE6.4 kmh NE 8.0 mph12.9 kmh 29.95 in1014.2 mb 0.00 in0.0 mm 0.00 in0.0 mm 0.00 in0.0 mm
02:19 AM 51.8°F11.0°C 40.0°F4.4°C 64% 4.0 mph NE6.4 kmh NE 6.0 mph9.7 kmh 29.93 in1013.5 mb 0.00 in0.0 mm 0.00 in0.0 mm 0.00 in0.0 mm
02:40 AM 51.6°F10.9°C 40.2°F4.6°C 65% 4.0 mph NE6.4 kmh NE 6.0 mph9.7 kmh 29.92 in1013.2 mb 0.00 in0.0 mm 0.00 in0.0 mm 0.00 in0.0 mm
03:01 AM 51.1°F10.6°C 39.3°F4.1°C 64% 5.0 mph NW8.0 kmh NW 7.0 mph11.3 kmh 29.93 in1013.5 mb 0.00 in0.0 mm 0.00 in0.0 mm 0.00 in0.0 mm
03:22 AM 51.8°F11.0°C 39.2°F4.0°C 62% 4.0 mph NW6.4 kmh NW 8.0 mph12.9 kmh 29.91 in1012.9 mb 0.00 in0.0 mm 0.00 in0.0 mm 0.00 in0.0 mm
03:43 AM 51.8°F11.0°C 38.8°F3.8°C 61% 3.0 mph NW4.8 kmh NW 6.0 mph9.7 kmh 29.91 in1012.9 mb 0.00 in0.0 mm 0.00 in0.0 mm 0.00 in0.0 mm
04:04 AM 51.8°F11.0°C 37.5°F3.1°C 58% 4.0 mph NW6.4 kmh NW 5.0 mph8.0 kmh 29.91 in1012.9 mb 0.00 in0.0 mm 0.00 in0.0 mm 0.00 in0.0 mm
04:25 AM 50.5°F10.3°C 38.0°F3.3°C 62% 3.0 mph NW4.8 kmh NW 4.0 mph6.4 kmh 29.92 in1013.2 mb 0.00 in0.0 mm 0.00 in0.0 mm 0.00 in0.0 mm
04:46 AM 50.7°F10.4°C 38.6°F3.7°C 63% 4.0 mph NW6.4 kmh NW 7.0 mph11.3 kmh 29.92 in1013.2 mb 0.00 in0.0 mm 0.00 in0.0 mm 0.00 in0.0 mm
05:07 AM 50.0°F10.0°C 37.5°F3.1°C 62% 4.0 mph NW6.4 kmh NW 5.0 mph8.0 kmh 29.93 in1013.5 mb 0.00 in0.0 mm 0.00 in0.0 mm 0.00 in0.0 mm
05:28 AM 50.7°F10.4°C 37.3°F2.9°C 60% 2.0 mph NW3.2 kmh NW 4.0 mph6.4 kmh 29.93 in1013.5 mb 0.00 in0.0 mm 0.00 in0.0 mm 0.00 in0.0 mm
05:49 AM 50.2°F10.1°C 37.3°F2.9°C 61% 11.0 mph NW17.7 kmh NW 13.0 mph20.9 kmh 29.93 in1013.5 mb 0.00 in0.0 mm 0.00 in0.0 mm 0.00 in0.0 mm
06:21 AM 49.6°F9.8°C 37.2°F2.9°C 62% 5.0 mph NW8.0 kmh NW 9.0 mph14.5 kmh 29.94 in1013.9 mb 0.00 in0.0 mm 0.00 in0.0 mm 0.00 in0.0 mm
06:42 AM 50.6°F10.3°C 36.6°F2.6°C 58% 7.0 mph NW11.3 kmh NW 15.0 mph24.1 kmh 29.93 in1013.5 mb 0.00 in0.0 mm 0.00 in0.0 mm 0.00 in0.0 mm
07:03 AM 51.2°F10.7°C 36.3°F2.4°C 57% 4.0 mph NW6.4 kmh NW 8.0 mph12.9 kmh 29.93 in1013.5 mb 0.00 in0.0 mm 0.00 in0.0 mm 0.00 in0.0 mm
07:21 AM 50.0°F10.0°C 37.1°F2.8°C 61% 4.0 mph NW6.4 kmh NW 8.0 mph12.9 kmh 29.95 in1014.2 mb 0.00 in0.0 mm 0.00 in0.0 mm 0.00 in0.0 mm
07:42 AM 49.8°F9.9°C 37.5°F3.1°C 63% 4.0 mph NW6.4 kmh NW 9.0 mph14.5 kmh 29.95 in1014.2 mb 0.00 in0.0 mm 0.00 in0.0 mm 0.00 in0.0 mm
08:03 AM 50.4°F10.2°C 37.5°F3.1°C 61% 6.0 mph NW9.7 kmh NW 8.0 mph12.9 kmh 29.95 in1014.2 mb 0.00 in0.0 mm 0.00 in0.0 mm 0.00 in0.0 mm
08:21 AM 50.1°F10.1°C 38.4°F3.6°C 64% 3.0 mph NW4.8 kmh NW 4.0 mph6.4 kmh 29.96 in1014.6 mb 0.00 in0.0 mm 0.00 in0.0 mm 0.00 in0.0 mm
08:42 AM 51.2°F10.7°C 39.0°F3.9°C 63% 4.0 mph NW6.4 kmh NW 7.0 mph11.3 kmh 29.95 in1014.2 mb 0.00 in0.0 mm 0.00 in0.0 mm 0.00 in0.0 mm
09:03 AM 54.7°F12.6°C 39.2°F4.0°C 56% 4.0 mph NW6.4 kmh NW 7.0 mph11.3 kmh 29.91 in1012.9 mb 0.00 in0.0 mm 0.00 in0.0 mm 0.00 in0.0 mm
09:21 AM 56.6°F13.7°C 39.9°F4.4°C 54% 4.0 mph NW6.4 kmh NW 7.0 mph11.3 kmh 29.89 in1012.2 mb 0.00 in0.0 mm 0.00 in0.0 mm 0.00 in0.0 mm
09:42 AM 58.5°F14.7°C 40.2°F4.6°C 51% 3.0 mph NW4.8 kmh NW 4.0 mph6.4 kmh 29.88 in1011.9 mb 0.00 in0.0 mm 0.00 in0.0 mm 0.00 in0.0 mm
10:21 AM 63.5°F17.5°C 37.0°F2.8°C 37% 3.0 mph NW4.8 kmh NW 4.0 mph6.4 kmh 29.83 in1010.2 mb 0.00 in0.0 mm 0.00 in0.0 mm 0.00 in0.0 mm
10:42 AM 63.3°F17.4°C 35.8°F2.1°C 36% 3.0 mph NW4.8 kmh NW 6.0 mph9.7 kmh 29.83 in1010.2 mb 0.00 in0.0 mm 0.00 in0.0 mm 0.00 in0.0 mm
11:03 AM 64.3°F17.9°C 36.9°F2.7°C 36% 3.0 mph WNW4.8 kmh WNW 6.0 mph9.7 kmh 29.82 in1009.8 mb 0.00 in0.0 mm 0.00 in0.0 mm 0.00 in0.0 mm
11:21 AM 66.2°F19.0°C 39.0°F3.9°C 37% 3.0 mph W4.8 kmh W 6.0 mph9.7 kmh 29.80 in1009.1 mb 0.00 in0.0 mm 0.00 in0.0 mm 0.00 in0.0 mm
11:42 AM 66.8°F19.3°C 39.6°F4.2°C 37% 3.0 mph W4.8 kmh W 6.0 mph9.7 kmh 29.80 in1009.1 mb 0.00 in0.0 mm 0.00 in0.0 mm 0.00 in0.0 mm
12:03 PM 68.4°F20.2°C 38.0°F3.3°C 33% 3.0 mph W4.8 kmh W 5.0 mph8.0 kmh 29.78 in1008.5 mb 0.00 in0.0 mm 0.00 in0.0 mm 0.00 in0.0 mm
12:21 PM 68.7°F20.4°C 36.8°F2.7°C 31% 5.0 mph W8.0 kmh W 10.0 mph16.1 kmh 29.77 in1008.1 mb 0.00 in0.0 mm 0.00 in0.0 mm 0.00 in0.0 mm
12:42 PM 68.1°F20.1°C 35.2°F1.8°C 30% 6.0 mph W9.7 kmh W 10.0 mph16.1 kmh 29.78 in1008.5 mb 0.00 in0.0 mm 0.00 in0.0 mm 0.00 in0.0 mm
01:03 PM 68.6°F20.3°C 33.8°F1.0°C 28% 8.0 mph NW12.9 kmh NW 15.0 mph24.1 kmh 29.77 in1008.1 mb 0.00 in0.0 mm 0.00 in0.0 mm 0.00 in0.0 mm
01:21 PM 68.2°F20.1°C 33.6°F0.9°C 28% 8.0 mph W12.9 kmh W 11.0 mph17.7 kmh 29.76 in1007.8 mb 0.00 in0.0 mm 0.00 in0.0 mm 0.00 in0.0 mm
01:42 PM 68.6°F20.3°C 34.0°F1.1°C 28% 8.0 mph W12.9 kmh W 15.0 mph24.1 kmh 29.75 in1007.5 mb 0.00 in0.0 mm 0.00 in0.0 mm 0.00 in0.0 mm
02:03 PM 68.3°F20.2°C 33.0°F0.6°C 27% 7.0 mph W11.3 kmh W 12.0 mph19.3 kmh 29.75 in1007.5 mb 0.00 in0.0 mm 0.00 in0.0 mm 0.00 in0.0 mm
02:21 PM 70.2°F21.2°C 31.7°F-0.2°C 24% 6.0 mph W9.7 kmh W 13.0 mph20.9 kmh 29.73 in1006.8 mb 0.00 in0.0 mm 0.00 in0.0 mm 0.00 in0.0 mm
02:42 PM 70.3°F21.3°C 30.8°F-0.7°C 23% 8.0 mph W12.9 kmh W 15.0 mph24.1 kmh 29.73 in1006.8 mb 0.00 in0.0 mm 0.00 in0.0 mm 0.00 in0.0 mm
03:03 PM 71.2°F21.8°C 30.5°F-0.8°C 22% 5.0 mph W8.0 kmh W 9.0 mph14.5 kmh 29.72 in1006.4 mb 0.00 in0.0 mm 0.00 in0.0 mm 0.00 in0.0 mm
03:21 PM 72.2°F22.3°C 29.2°F-1.6°C 20% 5.0 mph W8.0 kmh W 7.0 mph11.3 kmh 29.71 in1006.1 mb 0.00 in0.0 mm 0.00 in0.0 mm 0.00 in0.0 mm
03:42 PM 72.4°F22.4°C 29.6°F-1.3°C 20% 4.0 mph W6.4 kmh W 9.0 mph14.5 kmh 29.71 in1006.1 mb 0.00 in0.0 mm 0.00 in0.0 mm 0.00 in0.0 mm
04:21 PM 73.6°F23.1°C 34.1°F1.2°C 24% 1.0 mph W1.6 kmh W 4.0 mph6.4 kmh 29.69 in1005.4 mb 0.00 in0.0 mm 0.00 in0.0 mm 0.00 in0.0 mm
04:42 PM 73.4°F23.0°C 35.0°F1.7°C 25% 3.0 mph WNW4.8 kmh WNW 6.0 mph9.7 kmh 29.69 in1005.4 mb 0.00 in0.0 mm 0.00 in0.0 mm 0.00 in0.0 mm
05:03 PM 65.2°F18.4°C 35.1°F1.7°C 33% 2.0 mph W3.2 kmh W 6.0 mph9.7 kmh 29.77 in1008.1 mb 0.00 in0.0 mm 0.00 in0.0 mm 0.00 in0.0 mm
05:21 PM 61.8°F16.6°C 37.6°F3.1°C 41% 2.0 mph W3.2 kmh W 4.0 mph6.4 kmh 29.82 in1009.8 mb 0.00 in0.0 mm 0.00 in0.0 mm 0.00 in0.0 mm
05:42 PM 59.9°F15.5°C 37.6°F3.1°C 44% 3.0 mph W4.8 kmh W 6.0 mph9.7 kmh 29.84 in1010.5 mb 0.00 in0.0 mm 0.00 in0.0 mm 0.00 in0.0 mm
06:03 PM 60.1°F15.6°C 37.2°F2.9°C 42% 2.0 mph W3.2 kmh W 5.0 mph8.0 kmh 29.84 in1010.5 mb 0.00 in0.0 mm 0.00 in0.0 mm 0.00 in0.0 mm
06:21 PM 58.8°F14.9°C 37.2°F2.9°C 45% 3.0 mph NE4.8 kmh NE 7.0 mph11.3 kmh 29.86 in1011.2 mb 0.00 in0.0 mm 0.00 in0.0 mm 0.00 in0.0 mm
06:42 PM 57.3°F14.1°C 37.6°F3.1°C 48% 3.0 mph NE4.8 kmh NE 8.0 mph12.9 kmh 29.88 in1011.9 mb 0.00 in0.0 mm 0.00 in0.0 mm 0.00 in0.0 mm
07:03 PM 55.8°F13.2°C 37.6°F3.1°C 50% 2.0 mph NE3.2 kmh NE 4.0 mph6.4 kmh 29.90 in1012.5 mb 0.00 in0.0 mm 0.00 in0.0 mm 0.00 in0.0 mm
07:21 PM 54.5°F12.5°C 37.8°F3.2°C 53% 3.0 mph NE4.8 kmh NE 5.0 mph8.0 kmh 29.92 in1013.2 mb 0.00 in0.0 mm 0.00 in0.0 mm 0.00 in0.0 mm
07:42 PM 53.9°F12.2°C 37.4°F3.0°C 54% 3.0 mph NE4.8 kmh NE 5.0 mph8.0 kmh 29.93 in1013.5 mb 0.00 in0.0 mm 0.00 in0.0 mm 0.00 in0.0 mm
08:03 PM 53.3°F11.8°C 37.7°F3.2°C 55% 2.0 mph NE3.2 kmh NE 4.0 mph6.4 kmh 29.95 in1014.2 mb 0.00 in0.0 mm 0.00 in0.0 mm 0.00 in0.0 mm
08:21 PM 53.7°F12.1°C 37.5°F3.1°C 54% 4.0 mph NE6.4 kmh NE 8.0 mph12.9 kmh 29.95 in1014.2 mb 0.00 in0.0 mm 0.00 in0.0 mm 0.00 in0.0 mm
08:42 PM 54.6°F12.6°C 36.8°F2.7°C 51% 3.0 mph NE4.8 kmh NE 8.0 mph12.9 kmh 29.95 in1014.2 mb 0.00 in0.0 mm 0.00 in0.0 mm 0.00 in0.0 mm
09:03 PM 53.3°F11.8°C 37.0°F2.8°C 54% 3.0 mph NE4.8 kmh NE 6.0 mph9.7 kmh 29.96 in1014.6 mb 0.00 in0.0 mm 0.00 in0.0 mm 0.00 in0.0 mm
09:21 PM 53.9°F12.2°C 36.7°F2.6°C 52% 5.0 mph NE8.0 kmh NE 8.0 mph12.9 kmh 29.96 in1014.6 mb 0.00 in0.0 mm 0.00 in0.0 mm 0.00 in0.0 mm
09:42 PM 52.7°F11.5°C 36.8°F2.7°C 55% 2.0 mph NE3.2 kmh NE 4.0 mph6.4 kmh 29.97 in1014.9 mb 0.00 in0.0 mm 0.00 in0.0 mm 0.00 in0.0 mm
10:03 PM 51.6°F10.9°C 37.2°F2.9°C 58% 3.0 mph NE4.8 kmh NE 6.0 mph9.7 kmh 29.99 in1015.6 mb 0.00 in0.0 mm 0.00 in0.0 mm 0.00 in0.0 mm
10:21 PM 51.6°F10.9°C 36.8°F2.7°C 57% 3.0 mph NE4.8 kmh NE 5.0 mph8.0 kmh 30.00 in1015.9 mb 0.00 in0.0 mm 0.00 in0.0 mm 0.00 in0.0 mm
10:42 PM 51.8°F11.0°C 36.6°F2.6°C 56% 4.0 mph NE6.4 kmh NE 7.0 mph11.3 kmh 29.99 in1015.6 mb 0.00 in0.0 mm 0.00 in0.0 mm 0.00 in0.0 mm
10:58 PM 51.4°F10.8°C 36.3°F2.4°C 56% 4.0 mph NE6.4 kmh NE 4.0 mph6.4 kmh 30.00 in1015.9 mb 0.00 in0.0 mm 0.00 in0.0 mm 0.00 in0.0 mm
11:19 PM 50.7°F10.4°C 36.5°F2.5°C 58% 3.0 mph NE4.8 kmh NE 4.0 mph6.4 kmh 30.01 in1016.3 mb 0.00 in0.0 mm 0.00 in0.0 mm 0.00 in0.0 mm
11:40 PM 51.3°F10.7°C 36.1°F2.3°C 56% 4.0 mph NE6.4 kmh NE 7.0 mph11.3 kmh 30.00 in1015.9 mb 0.00 in0.0 mm 0.00 in0.0 mm 0.00 in0.0 mm